Terminal Aerodrome Forecast
Issued by NWS

Home | Current Version | Previous Version | Text Only | Print | Product List | Glossary On
Versions: 1 2 3 4 5 6 7 8 9 10 11 12 13
000
FTUS42 TJSJ 161700 RRA
TAFJSJ
TAF
TJSJ 161739Z 1618/1718 07015KT P6SM VCSH SCT025 SCT040
     FM162230 09009KT P6SM FEW030 SCT060
     FM170630 10004KT P6SM VCSH SCT022 SCT035
     FM171400 07015KT P6SM FEW025 SCT060=

USA.gov is the U.S. government's official web portal to all federal, state and local government web resources and services.